createdAt,value
2019-05-13T00:00:27.801Z,59.30
2019-05-13T00:02:58.099Z,59.00
2019-05-13T00:05:28.330Z,59.20
2019-05-13T00:07:58.600Z,59.10
2019-05-13T00:10:28.839Z,59.10
2019-05-13T00:12:59.132Z,59.10
2019-05-13T00:15:29.542Z,59.00
2019-05-13T00:18:04.033Z,59.00
2019-05-13T00:20:34.181Z,58.90
2019-05-13T00:23:04.452Z,58.80
2019-05-13T00:25:34.785Z,59.10
2019-05-13T00:28:05.068Z,59.00
2019-05-13T00:30:35.386Z,58.90
2019-05-13T00:33:07.366Z,59.10
2019-05-13T00:35:37.662Z,59.00
2019-05-13T00:38:08.035Z,59.60
2019-05-13T00:40:39.220Z,60.20
2019-05-13T00:43:09.444Z,60.90
2019-05-13T00:45:40.597Z,61.00
2019-05-13T00:48:10.974Z,61.00
2019-05-13T00:50:41.272Z,60.80
2019-05-13T00:53:13.367Z,61.10
2019-05-13T00:55:44.529Z,61.40
2019-05-13T00:58:15.154Z,61.10
2019-05-13T01:00:46.918Z,61.00
2019-05-13T01:03:17.499Z,61.10
2019-05-13T01:05:47.743Z,61.10
2019-05-13T01:08:19.792Z,60.90
2019-05-13T01:10:50.027Z,60.60
2019-05-13T01:13:20.416Z,60.40
2019-05-13T01:15:50.684Z,60.30
2019-05-13T01:18:23.273Z,60.00
2019-05-13T01:20:53.843Z,60.10
2019-05-13T01:23:24.258Z,59.80
2019-05-13T01:25:54.604Z,59.70
2019-05-13T01:28:24.941Z,59.50
2019-05-13T01:30:55.283Z,59.30
2019-05-13T01:33:25.436Z,60.00
2019-05-13T01:35:55.810Z,59.30
2019-05-13T01:38:26.108Z,59.10
2019-05-13T01:40:56.412Z,58.70
2019-05-13T01:43:28.230Z,58.40
2019-05-13T01:45:58.462Z,58.50
2019-05-13T01:48:28.814Z,58.20
2019-05-13T01:50:59.185Z,58.20
2019-05-13T01:53:29.367Z,58.30
2019-05-13T01:56:01.091Z,57.90
2019-05-13T01:58:33.805Z,57.80
2019-05-13T02:01:05.112Z,57.80
2019-05-13T02:03:38.498Z,57.70
2019-05-13T02:06:08.910Z,57.50
2019-05-13T02:08:39.220Z,57.70
2019-05-13T02:11:09.532Z,57.90
2019-05-13T02:13:39.857Z,58.00
2019-05-13T02:16:14.355Z,57.80
2019-05-13T02:18:44.386Z,58.10
2019-05-13T02:21:15.010Z,58.70
2019-05-13T02:23:46.719Z,59.30
2019-05-13T02:26:17.118Z,59.70
2019-05-13T02:28:47.443Z,60.60
2019-05-13T02:31:26.781Z,61.60
2019-05-13T02:33:52.917Z,61.90
2019-05-13T02:36:22.899Z,62.80
2019-05-13T02:38:54.753Z,63.30
2019-05-13T02:41:25.128Z,64.10
2019-05-13T02:43:55.575Z,63.70
2019-05-13T02:46:25.847Z,64.30
2019-05-13T02:48:56.178Z,64.40
2019-05-13T02:51:26.574Z,65.60
2019-05-13T02:53:57.307Z,66.00
2019-05-13T02:56:27.605Z,66.60
2019-05-13T02:58:58.011Z,66.80
2019-05-13T03:01:28.402Z,66.90
2019-05-13T03:03:58.731Z,67.00
2019-05-13T03:06:32.781Z,66.90
2019-05-13T03:09:03.183Z,66.60
2019-05-13T03:11:33.365Z,66.00
2019-05-13T03:14:05.305Z,66.30
2019-05-13T03:16:42.644Z,66.10
2019-05-13T03:19:13.540Z,66.00
2019-05-13T03:21:43.954Z,65.80
2019-05-13T03:24:14.297Z,66.00
2019-05-13T03:26:44.602Z,65.30
2019-05-13T03:29:16.398Z,65.20
2019-05-13T03:31:47.252Z,64.90
2019-05-13T03:34:17.639Z,64.60
2019-05-13T03:36:48.749Z,64.00
2019-05-13T03:39:22.245Z,63.70
2019-05-13T03:41:54.262Z,63.90
2019-05-13T03:44:27.157Z,63.80
2019-05-13T03:46:59.214Z,63.70
2019-05-13T03:49:32.677Z,63.40
2019-05-13T03:52:04.972Z,63.40
2019-05-13T03:54:35.623Z,62.80
2019-05-13T03:57:06.852Z,62.90
2019-05-13T03:59:37.232Z,62.70
2019-05-13T04:02:07.622Z,62.60
2019-05-13T04:04:37.941Z,62.20
2019-05-13T04:07:08.315Z,62.30
2019-05-13T04:09:42.084Z,62.40
2019-05-13T04:12:13.436Z,62.20
2019-05-13T04:14:44.232Z,62.20
2019-05-13T04:17:14.585Z,60.90
2019-05-13T04:19:44.893Z,60.80
2019-05-13T04:22:15.302Z,60.90
2019-05-13T04:24:47.224Z,60.60
2019-05-13T04:27:17.874Z,60.60
2019-05-13T04:29:52.527Z,59.90
2019-05-13T04:32:23.089Z,60.00
2019-05-13T04:34:53.127Z,60.00
2019-05-13T04:37:23.475Z,60.20
2019-05-13T04:39:56.684Z,60.10
2019-05-13T04:42:27.322Z,60.50
2019-05-13T04:44:57.676Z,59.10
2019-05-13T04:47:27.977Z,59.70
2019-05-13T04:50:02.568Z,59.30
2019-05-13T04:52:33.010Z,59.20
2019-05-13T04:55:03.675Z,59.50
2019-05-13T04:57:34.180Z,59.10
2019-05-13T05:00:06.135Z,59.10
2019-05-13T05:02:55.065Z,59.00
2019-05-13T05:05:32.609Z,58.80
2019-05-13T05:08:24.210Z,59.10
2019-05-13T05:11:31.901Z,59.10
2019-05-13T05:14:06.393Z,58.30
2019-05-13T05:16:45.442Z,58.30
2019-05-13T05:19:47.660Z,58.70
2019-05-13T05:22:32.318Z,58.10
2019-05-13T05:25:29.072Z,58.30
2019-05-13T05:28:02.107Z,58.00
2019-05-13T05:30:44.200Z,57.70
2019-05-13T05:33:35.202Z,57.60
2019-05-13T05:36:23.385Z,57.60
2019-05-13T05:38:56.643Z,57.60
2019-05-13T05:41:31.605Z,57.10
2019-05-13T05:44:02.884Z,56.90
2019-05-13T05:46:33.806Z,56.70
2019-05-13T05:49:07.121Z,56.30
2019-05-13T05:51:38.815Z,56.30
2019-05-13T05:54:13.994Z,55.70
2019-05-13T05:56:42.941Z,55.10
2019-05-13T05:59:13.172Z,55.00
2019-05-13T06:01:44.797Z,54.60
2019-05-13T06:04:16.590Z,53.90
2019-05-13T06:06:47.470Z,52.90
2019-05-13T06:09:17.989Z,52.00
2019-05-13T06:11:48.374Z,50.80
2019-05-13T06:14:18.716Z,49.70
2019-05-13T06:16:51.870Z,49.40
2019-05-13T06:19:22.602Z,49.00
2019-05-13T06:21:53.394Z,48.70
2019-05-13T06:24:26.905Z,48.30
2019-05-13T06:26:57.461Z,48.90
2019-05-13T06:29:31.389Z,48.60
2019-05-13T06:32:15.302Z,48.20
2019-05-13T06:34:33.789Z,48.10
2019-05-13T06:37:04.150Z,47.60
2019-05-13T06:39:34.547Z,47.80
2019-05-13T06:42:06.375Z,47.20
2019-05-13T06:44:36.647Z,46.50
2019-05-13T06:47:07.119Z,45.10
2019-05-13T06:49:37.485Z,45.10
2019-05-13T06:52:08.683Z,44.60
2019-05-13T06:54:41.630Z,45.30
2019-05-13T06:57:13.366Z,45.70
2019-05-13T06:59:43.005Z,46.00
2019-05-13T07:02:13.443Z,46.00
2019-05-13T07:04:45.443Z,46.20
2019-05-13T07:07:18.193Z,46.40
2019-05-13T07:09:48.424Z,46.70
2019-05-13T07:12:18.682Z,46.30
2019-05-13T07:14:48.938Z,46.60
2019-05-13T07:17:22.050Z,46.40
2019-05-13T07:19:52.707Z,46.50
2019-05-13T07:22:23.254Z,45.80
2019-05-13T07:24:53.572Z,46.10
2019-05-13T07:27:23.874Z,46.30
2019-05-13T07:29:55.744Z,46.50
2019-05-13T07:32:26.284Z,46.00
2019-05-13T07:34:56.679Z,46.20
2019-05-13T07:37:27.281Z,46.30
2019-05-13T07:39:57.838Z,45.90
2019-05-13T07:42:28.137Z,45.80
2019-05-13T07:45:01.393Z,45.70
2019-05-13T07:47:32.673Z,45.30
2019-05-13T07:50:03.252Z,45.50
2019-05-13T07:52:33.641Z,45.60
2019-05-13T07:55:05.643Z,45.20
2019-05-13T07:57:35.900Z,45.20
2019-05-13T08:00:07.379Z,45.70
2019-05-13T08:02:37.651Z,45.50
2019-05-13T08:05:08.323Z,44.90
2019-05-13T08:07:38.681Z,45.00
2019-05-13T08:10:11.390Z,44.50
2019-05-13T08:12:41.415Z,44.10
2019-05-13T08:15:13.302Z,44.60
2019-05-13T08:17:47.295Z,44.60
2019-05-13T08:20:16.121Z,44.70
2019-05-13T08:22:46.529Z,44.80
2019-05-13T08:25:16.901Z,44.20
2019-05-13T08:27:47.319Z,43.70
2019-05-13T08:30:18.320Z,43.90
2019-05-13T08:32:49.245Z,43.00
2019-05-13T08:35:22.589Z,42.10
2019-05-13T08:37:53.207Z,41.30
2019-05-13T08:40:23.633Z,41.70
2019-05-13T08:42:54.130Z,40.90
2019-05-13T08:45:24.613Z,41.50
2019-05-13T08:47:55.130Z,41.20
2019-05-13T08:50:25.770Z,41.30
2019-05-13T08:52:56.275Z,41.00
2019-05-13T08:55:26.783Z,41.20
2019-05-13T08:57:57.196Z,41.80
2019-05-13T09:00:52.802Z,42.10
2019-05-13T09:03:24.688Z,41.70
2019-05-13T09:05:56.848Z,42.00
2019-05-13T09:08:28.717Z,42.60
2019-05-13T09:11:01.355Z,42.40
2019-05-13T09:13:32.964Z,42.40
2019-05-13T09:16:03.895Z,42.00
2019-05-13T09:18:35.143Z,41.60
2019-05-13T09:21:05.665Z,41.70
2019-05-13T09:23:36.118Z,41.90
2019-05-13T09:26:06.517Z,41.80
2019-05-13T09:28:36.872Z,42.20
2019-05-13T09:31:07.287Z,41.60
2019-05-13T09:33:37.732Z,41.70
2019-05-13T09:36:08.126Z,41.80
2019-05-13T09:38:41.902Z,42.10
2019-05-13T09:41:12.476Z,41.80
2019-05-13T09:43:42.976Z,42.20
2019-05-13T09:46:13.537Z,42.20
2019-05-13T09:48:45.449Z,42.50
2019-05-13T09:51:15.809Z,42.10
2019-05-13T09:53:46.175Z,42.10
2019-05-13T09:56:16.578Z,43.10
2019-05-13T09:58:47.023Z,43.40
2019-05-13T10:01:17.411Z,43.20
2019-05-13T10:03:54.918Z,43.30
2019-05-13T10:06:22.166Z,43.60
2019-05-13T10:08:52.899Z,43.60
2019-05-13T10:11:23.428Z,43.40
2019-05-13T10:13:53.919Z,43.10
2019-05-13T10:16:26.720Z,43.10
2019-05-13T10:18:58.558Z,42.00
2019-05-13T10:21:29.125Z,41.50
2019-05-13T10:23:59.563Z,41.00
2019-05-13T10:26:32.010Z,40.80
2019-05-13T10:29:02.728Z,40.60
2019-05-13T10:31:33.171Z,40.40
2019-05-13T10:34:03.753Z,40.10
2019-05-13T10:36:34.130Z,39.40
2019-05-13T10:39:07.254Z,39.40
2019-05-13T10:41:37.895Z,39.70
2019-05-13T10:44:08.326Z,39.30
2019-05-13T10:46:38.725Z,39.00
2019-05-13T10:49:12.213Z,39.40
2019-05-13T10:51:42.669Z,39.60
2019-05-13T10:54:13.345Z,39.40
2019-05-13T10:56:43.755Z,39.60
2019-05-13T10:59:14.193Z,40.10
2019-05-13T11:01:44.684Z,41.30
2019-05-13T11:04:15.138Z,41.40
2019-05-13T11:06:45.888Z,41.30
2019-05-13T11:09:16.309Z,41.30
2019-05-13T11:11:46.736Z,41.50
2019-05-13T11:14:18.718Z,41.50
2019-05-13T11:16:51.346Z,41.80
2019-05-13T11:19:23.093Z,42.20
2019-05-13T11:21:53.364Z,42.40
2019-05-13T11:24:23.786Z,42.20
2019-05-13T11:26:56.456Z,42.70
2019-05-13T11:29:27.078Z,42.30
2019-05-13T11:31:57.561Z,41.90
2019-05-13T11:34:28.024Z,42.00
2019-05-13T11:36:58.489Z,42.00
2019-05-13T11:39:28.976Z,41.30
2019-05-13T11:42:02.048Z,41.00
2019-05-13T11:44:32.310Z,41.10
2019-05-13T11:47:03.154Z,40.90
2019-05-13T11:52:03.517Z,40.00
2019-05-13T11:54:33.921Z,39.50
2019-05-13T11:57:06.349Z,39.30
2019-05-13T11:59:37.222Z,40.10
2019-05-13T12:02:07.952Z,39.20
2019-05-13T12:04:38.750Z,39.20
2019-05-13T12:07:12.940Z,38.80
2019-05-13T12:09:41.599Z,39.10
2019-05-13T12:12:13.057Z,39.90
2019-05-13T12:15:14.910Z,39.60
2019-05-13T12:17:16.107Z,38.90
2019-05-13T12:19:46.515Z,39.50
2019-05-13T12:22:18.397Z,39.60
2019-05-13T12:24:48.840Z,39.90
2019-05-13T12:27:19.287Z,39.70
2019-05-13T12:29:52.825Z,39.30
2019-05-13T12:32:22.596Z,39.10
2019-05-13T12:34:53.078Z,38.70
2019-05-13T12:37:23.476Z,38.30
2019-05-13T12:39:53.994Z,38.20
2019-05-13T12:42:25.277Z,37.80
2019-05-13T12:45:08.167Z,36.80
2019-05-13T12:47:27.798Z,37.10
2019-05-13T12:49:58.422Z,37.00
2019-05-13T12:52:28.927Z,36.90
2019-05-13T12:55:03.338Z,36.80
2019-05-13T12:57:33.038Z,36.20
2019-05-13T13:00:05.056Z,36.60
2019-05-13T13:02:37.190Z,35.10
2019-05-13T13:05:14.096Z,35.20
2019-05-13T13:07:42.237Z,35.30
2019-05-13T13:10:14.554Z,35.30
2019-05-13T13:12:44.624Z,35.60
2019-05-13T13:15:36.071Z,34.30
2019-05-13T13:17:47.665Z,34.50
2019-05-13T13:20:18.271Z,34.30
2019-05-13T13:22:48.732Z,33.40
2019-05-13T13:25:23.546Z,33.30
2019-05-13T13:28:10.106Z,34.20
2019-05-13T13:30:23.649Z,34.60
2019-05-13T13:32:55.023Z,33.60
2019-05-13T13:35:25.502Z,34.00
2019-05-13T13:37:55.998Z,34.10
2019-05-13T13:40:29.512Z,33.70
2019-05-13T13:42:58.606Z,33.20
2019-05-13T13:45:32.708Z,32.60
2019-05-13T13:50:33.784Z,33.10
2019-05-13T13:53:04.225Z,32.70
2019-05-13T13:55:34.647Z,32.70
2019-05-13T13:58:05.186Z,32.40
2019-05-13T14:00:47.218Z,31.80
2019-05-13T14:03:08.509Z,32.00
2019-05-13T14:05:38.969Z,31.80
2019-05-13T14:06:58.942Z,33.20
2019-05-13T14:08:08.952Z,31.60
2019-05-13T14:10:41.856Z,32.10
2019-05-13T14:13:12.638Z,32.00
2019-05-13T14:15:44.606Z,32.00
2019-05-13T14:18:15.077Z,32.20
2019-05-13T14:20:45.489Z,32.80
2019-05-13T14:23:15.875Z,33.50
2019-05-13T14:25:46.259Z,33.60
2019-05-13T14:28:17.814Z,33.50
2019-05-13T14:30:48.341Z,33.70
2019-05-13T14:33:18.777Z,34.50
2019-05-13T14:35:49.306Z,35.00
2019-05-13T14:38:21.873Z,35.30
2019-05-13T14:40:52.022Z,34.90
2019-05-13T14:43:23.080Z,35.30
2019-05-13T14:45:55.082Z,35.60
2019-05-13T14:48:25.579Z,35.30
2019-05-13T14:50:58.915Z,34.90
2019-05-13T14:53:28.092Z,34.90
2019-05-13T14:55:58.500Z,35.00
2019-05-13T14:58:29.075Z,35.10
2019-05-13T15:01:12.494Z,35.10
2019-05-13T15:03:33.326Z,34.40
2019-05-13T15:06:03.973Z,35.00
2019-05-13T15:08:34.457Z,35.70
2019-05-13T15:11:04.829Z,36.30
2019-05-13T15:13:36.785Z,37.00
2019-05-13T15:16:07.182Z,37.20
2019-05-13T15:18:37.790Z,37.20
2019-05-13T15:21:09.051Z,37.40
2019-05-13T15:23:41.851Z,37.80
2019-05-13T15:26:11.878Z,38.10
2019-05-13T15:28:42.362Z,38.30
2019-05-13T15:31:12.748Z,38.50
2019-05-13T15:33:43.153Z,38.40
2019-05-13T15:36:13.535Z,38.50
2019-05-13T15:38:43.908Z,38.60
2019-05-13T15:41:15.913Z,39.20
2019-05-13T15:43:46.330Z,39.60
2019-05-13T15:46:16.884Z,40.10
2019-05-13T15:48:47.280Z,40.40
2019-05-13T15:51:17.750Z,40.70
2019-05-13T15:53:48.132Z,41.10
2019-05-13T15:56:18.597Z,41.40
2019-05-13T15:58:49.363Z,41.80
2019-05-13T16:01:22.916Z,42.00
2019-05-13T16:03:53.645Z,42.30
2019-05-13T16:06:24.095Z,42.40
2019-05-13T16:08:54.568Z,42.30
2019-05-13T16:11:25.211Z,42.80
2019-05-13T16:13:56.503Z,43.20
2019-05-13T16:16:26.957Z,43.40
2019-05-13T16:18:57.365Z,43.70
2019-05-13T16:21:27.837Z,43.60
2019-05-13T16:23:58.260Z,43.50
2019-05-13T16:26:28.724Z,43.70
2019-05-13T16:29:01.830Z,43.70
2019-05-13T16:31:31.851Z,43.80
2019-05-13T16:34:02.482Z,43.70
2019-05-13T16:36:32.937Z,43.40
2019-05-13T16:39:05.690Z,43.70
2019-05-13T16:41:36.629Z,43.90
2019-05-13T16:44:07.055Z,43.60
2019-05-13T16:46:37.436Z,43.70
2019-05-13T16:49:07.832Z,43.90
2019-05-13T16:51:38.228Z,43.70
2019-05-13T16:54:08.633Z,43.80
2019-05-13T16:56:42.002Z,43.90
2019-05-13T16:59:11.995Z,43.90
2019-05-13T17:01:42.429Z,44.10
2019-05-13T17:04:12.886Z,44.40
2019-05-13T17:06:43.284Z,44.50
2019-05-13T17:09:13.785Z,44.40
2019-05-13T17:11:44.344Z,44.50
2019-05-13T17:14:16.262Z,44.30
2019-05-13T17:16:46.718Z,44.50
2019-05-13T17:19:17.085Z,44.50
2019-05-13T17:21:47.507Z,44.40
2019-05-13T17:24:18.003Z,44.60
2019-05-13T17:26:48.377Z,44.60
2019-05-13T17:29:21.048Z,44.70
2019-05-13T17:31:51.495Z,45.00
2019-05-13T17:34:22.067Z,45.10
2019-05-13T17:36:52.447Z,45.40
2019-05-13T17:39:24.341Z,45.70
2019-05-13T17:41:56.213Z,46.20
2019-05-13T17:44:26.679Z,46.50
2019-05-13T17:46:57.059Z,47.30
2019-05-13T17:49:27.534Z,47.80
2019-05-13T17:52:02.291Z,48.00
2019-05-13T17:54:35.382Z,48.10
2019-05-13T17:57:07.269Z,48.40
2019-05-13T17:59:37.695Z,48.70
2019-05-13T18:02:08.140Z,49.00
2019-05-13T18:04:38.627Z,49.40
2019-05-13T18:07:09.192Z,49.80
2019-05-13T18:09:42.165Z,49.70
2019-05-13T18:12:13.184Z,49.80
2019-05-13T18:14:43.668Z,49.90
2019-05-13T18:17:14.034Z,50.10
2019-05-13T18:19:44.486Z,50.20
2019-05-13T18:22:15.006Z,50.30
2019-05-13T18:24:45.450Z,50.20
2019-05-13T18:27:15.875Z,50.10
2019-05-13T18:29:46.321Z,50.10
2019-05-13T18:32:16.761Z,50.20
2019-05-13T18:34:47.238Z,50.30
2019-05-13T18:37:19.121Z,50.50
2019-05-13T18:39:52.657Z,50.70
2019-05-13T18:42:23.135Z,50.90
2019-05-13T18:44:53.590Z,51.10
2019-05-13T18:47:24.041Z,51.20
2019-05-13T18:49:54.470Z,51.20
2019-05-13T18:52:24.896Z,51.30
2019-05-13T18:54:55.377Z,51.40
2019-05-13T18:57:25.849Z,51.50
2019-05-13T18:59:56.223Z,51.50
2019-05-13T19:02:26.675Z,51.30
2019-05-13T19:04:57.095Z,51.40
2019-05-13T19:07:27.551Z,51.60
2019-05-13T19:09:57.994Z,51.30
2019-05-13T19:12:31.445Z,51.50
2019-05-13T19:15:02.565Z,51.00
2019-05-13T19:17:36.087Z,50.70
2019-05-13T19:20:05.888Z,50.50
2019-05-13T19:22:36.378Z,49.80
2019-05-13T19:25:07.775Z,49.30
2019-05-13T19:27:38.150Z,49.20
2019-05-13T19:30:08.673Z,49.00
2019-05-13T19:32:41.417Z,49.50
2019-05-13T19:35:11.833Z,48.50
2019-05-13T19:37:42.718Z,48.20
2019-05-13T19:40:13.453Z,48.00
2019-05-13T19:42:43.909Z,47.40
2019-05-13T19:45:15.987Z,46.80
2019-05-13T19:47:51.929Z,47.20
2019-05-13T19:50:22.902Z,47.10
2019-05-13T19:52:55.235Z,46.80
2019-05-13T19:55:25.651Z,46.90
2019-05-13T19:57:56.046Z,46.90
2019-05-13T20:00:26.514Z,46.90
2019-05-13T20:02:56.925Z,47.00
2019-05-13T20:05:27.439Z,47.10
2019-05-13T20:07:57.872Z,47.20
2019-05-13T20:10:28.247Z,47.30
2019-05-13T20:12:58.645Z,47.20
2019-05-13T20:15:31.355Z,47.00
2019-05-13T20:18:01.494Z,46.90
2019-05-13T20:20:31.905Z,47.20
2019-05-13T20:23:02.322Z,46.30
2019-05-13T20:25:32.774Z,46.10
2019-05-13T20:28:03.195Z,46.10
2019-05-13T20:30:35.223Z,46.20
2019-05-13T20:33:05.630Z,46.10
2019-05-13T20:35:36.021Z,46.10
2019-05-13T20:38:06.519Z,46.00
2019-05-13T20:40:36.922Z,46.40
2019-05-13T20:43:08.828Z,45.70
2019-05-13T20:45:39.239Z,45.70
2019-05-13T20:48:11.790Z,45.70
2019-05-13T20:50:43.340Z,45.90
2019-05-13T20:53:13.789Z,45.90
2019-05-13T20:55:44.157Z,46.70
2019-05-13T20:58:16.029Z,46.00
2019-05-13T21:00:46.449Z,45.80
2019-05-13T21:03:18.401Z,45.90
2019-05-13T21:05:48.890Z,45.90
2019-05-13T21:08:21.501Z,45.90
2019-05-13T21:10:53.012Z,46.20
2019-05-13T21:13:23.414Z,46.10
2019-05-13T21:15:55.377Z,46.20
2019-05-13T21:18:25.767Z,46.10
2019-05-13T21:20:56.431Z,46.20
2019-05-13T21:23:28.420Z,46.30
2019-05-13T21:26:01.393Z,46.40
2019-05-13T21:28:31.212Z,46.30
2019-05-13T21:31:02.295Z,46.00
2019-05-13T21:33:32.761Z,46.20
2019-05-13T21:36:03.131Z,46.10
2019-05-13T21:38:33.532Z,45.80
2019-05-13T21:41:03.947Z,45.60
2019-05-13T21:43:34.397Z,45.70
2019-05-13T21:46:04.809Z,45.50
2019-05-13T21:48:35.186Z,45.50
2019-05-13T21:51:05.827Z,45.10
2019-05-13T21:53:36.312Z,45.30
2019-05-13T21:56:06.675Z,45.20
2019-05-13T21:58:37.081Z,45.20
2019-05-13T22:01:07.527Z,44.90
2019-05-13T22:03:37.895Z,45.10
2019-05-13T22:06:08.528Z,45.10
2019-05-13T22:08:41.130Z,45.20
2019-05-13T22:11:12.070Z,45.10
2019-05-13T22:13:42.672Z,45.00
2019-05-13T22:16:13.085Z,44.80
2019-05-13T22:18:43.450Z,45.00
2019-05-13T22:21:13.858Z,45.10
2019-05-13T22:23:44.298Z,45.30
2019-05-13T22:26:14.682Z,45.30
2019-05-13T22:28:45.191Z,45.40
2019-05-13T22:31:15.672Z,45.30
2019-05-13T22:33:46.079Z,45.40
2019-05-13T22:36:16.457Z,45.40
2019-05-13T22:38:46.947Z,45.50
2019-05-13T22:41:17.436Z,45.70
2019-05-13T22:43:55.712Z,45.70
2019-05-13T22:46:21.402Z,45.90
2019-05-13T22:48:51.987Z,46.20
2019-05-13T22:51:22.372Z,47.00
2019-05-13T22:53:52.799Z,46.60
2019-05-13T22:56:23.153Z,46.80
2019-05-13T22:58:53.645Z,47.20
2019-05-13T23:01:24.083Z,47.30
2019-05-13T23:03:54.493Z,47.50
2019-05-13T23:06:24.878Z,47.70
2019-05-13T23:08:55.251Z,47.80
2019-05-13T23:11:25.717Z,48.00
2019-05-13T23:14:07.372Z,48.20
2019-05-13T23:16:28.269Z,48.20
2019-05-13T23:18:58.713Z,48.20
2019-05-13T23:21:31.121Z,48.00
2019-05-13T23:24:02.184Z,48.00
2019-05-13T23:26:32.726Z,47.90
2019-05-13T23:29:04.569Z,47.70
2019-05-13T23:31:35.082Z,47.80
2019-05-13T23:34:06.937Z,47.60
2019-05-13T23:36:37.492Z,47.70
2019-05-13T23:39:08.076Z,47.90
2019-05-13T23:41:38.490Z,48.10
2019-05-13T23:44:21.680Z,48.20
2019-05-13T23:46:42.037Z,48.50
2019-05-13T23:49:12.597Z,48.60
2019-05-13T23:51:42.985Z,48.50
2019-05-13T23:54:13.378Z,48.80
2019-05-13T23:56:43.813Z,49.00
2019-05-13T23:59:14.208Z,49.10
